Hauptseite
METAR-TAF:

METAR-TAF

Flughäfen :

Flughafen Kudat

Kudat, Malaysia

Breite: 06-55N, Länge: 116-50E, Höhe: 3 m

Beobachtung

Neuester Wetterbericht von vor 47 Minuten, um 18:00 UTC
Wind 7 kt aus West/Südwest, variierte zwischen Süd und West
Temperatur 26°C
Luftfeuchtigkeit 94%
Luftdruck 1009 hPa

METAR: WBKT 181800Z AUTO 24007KT 190V280 //// // ////// 26/25 Q1009

Zeit: 02:47 (18:47 UTC)


TAF: fehlend

Wetterbeobachtungen und Prognosen von mehr als 4000 Flughäfen (METAR und TAF Bericht).

Die verfügbaren Stationen werden durch gelbe und rote Markierungen auf der Karte dargestellt.

Führen Sie die Maus auf sie, um den Namen der Station zu sehen.

Darauf klicken, um die Beobachtung von Wetterbeobachtungen und Prognosen zu sehen.

Um die Karte zu ändern : klicken Sie auf den grünen Tasten mit einem schwarzen Kreuz Zum Vergrößern, auf den grünen Button mit einem Gedankenstrich zu verkleinern, oder auf die grünen Pfeile für benachbarte Karten.


METAR-TAF: